Terminal Aerodrome Forecast
Issued by NWS

Home | Current Version | Previous Version | Text Only | Print | Product List | Glossary On
Versions: 1 2 3 4 5 6 7 8 9 10 11 12 13 14 15 16
000
FTUS41 KGYX 172320
TAFAUG
TAF
KAUG 172320Z 1800/1824 20005KT P6SM SKC
     FM180600 21004KT 3/4SM BR OVC001
     FM180800 VRB03KT 1/2SM FG VV001
     FM181200 27003KT 5SM BR BKN003
     FM181300 25003KT P6SM BKN250
     FM181700 32006KT P6SM BKN100=

USA.gov is the U.S. government's official web portal to all federal, state and local government web resources and services.